createdAt,value
2017-09-27T00:02:24.996Z,27.10
2017-09-27T04:20:30.934Z,30.23
2017-09-27T04:22:59.427Z,27.77
2017-09-27T04:25:27.626Z,29.65
2017-09-27T04:27:55.846Z,27.33
2017-09-27T04:30:24.073Z,28.17
2017-09-27T04:32:54.500Z,27.40
2017-09-27T04:35:23.499Z,28.62
2017-09-27T04:37:53.480Z,28.02
2017-09-27T04:40:21.671Z,28.17
2017-09-27T04:42:49.864Z,28.83
2017-09-27T04:45:18.047Z,28.58
2017-09-27T04:47:51.352Z,27.27
2017-09-27T04:50:19.663Z,28.55
2017-09-27T04:52:47.868Z,27.67
2017-09-27T04:55:16.084Z,29.90
2017-09-27T04:57:44.315Z,27.27
2017-09-27T05:00:13.692Z,27.35
2017-09-27T05:02:42.703Z,27.58
2017-09-27T05:05:10.990Z,26.77
2017-09-27T05:07:40.002Z,27.20
2017-09-27T05:10:08.677Z,31.33
2017-09-27T05:12:37.645Z,28.40
2017-09-27T05:15:05.831Z,28.25
2017-09-27T05:17:34.845Z,29.80
2017-09-27T05:20:03.066Z,29.37
2017-09-27T05:22:31.282Z,29.17
2017-09-27T05:24:59.531Z,29.70
2017-09-27T05:27:27.743Z,30.98
2017-09-27T05:29:56.042Z,29.30
2017-09-27T05:32:25.509Z,28.40
2017-09-27T05:34:54.590Z,30.12
2017-09-27T05:37:22.782Z,28.75
2017-09-27T05:39:51.874Z,29.20
2017-09-27T05:42:20.863Z,29.15
2017-09-27T05:44:49.073Z,31.12
2017-09-27T05:47:17.300Z,29.30
2017-09-27T05:49:45.939Z,31.42
2017-09-27T05:52:14.181Z,32.15
2017-09-27T05:54:42.445Z,28.60
2017-09-27T05:57:11.436Z,28.65
2017-09-27T05:59:40.503Z,31.35
2017-09-27T06:02:08.815Z,30.08
2017-09-27T06:04:37.071Z,30.40
2017-09-27T06:07:05.380Z,28.12
2017-09-27T06:09:33.650Z,33.05
2017-09-27T06:12:01.867Z,28.35
2017-09-27T06:14:30.094Z,29.73
2017-09-27T06:16:58.294Z,29.98
2017-09-27T06:19:26.556Z,28.62
2017-09-27T06:21:54.813Z,30.58
2017-09-27T06:24:23.123Z,34.00
2017-09-27T06:26:51.351Z,32.15
2017-09-27T06:29:20.319Z,30.08
2017-09-27T06:31:48.515Z,29.40
2017-09-27T06:34:17.482Z,33.83
2017-09-27T06:36:45.694Z,30.27
2017-09-27T06:39:14.779Z,31.55
2017-09-27T06:41:43.808Z,33.30
2017-09-27T06:44:12.039Z,36.13
2017-09-27T06:46:41.006Z,34.53
2017-09-27T06:49:09.286Z,31.37
2017-09-27T06:51:37.878Z,29.37
2017-09-27T06:54:06.079Z,32.47
2017-09-27T06:56:35.047Z,29.67
2017-09-27T06:59:03.267Z,30.83
2017-09-27T07:01:31.442Z,32.05
2017-09-27T07:03:59.771Z,35.85
2017-09-27T07:06:28.029Z,32.95
2017-09-27T07:08:56.221Z,32.85
2017-09-27T07:11:25.187Z,34.20
2017-09-27T07:13:53.427Z,33.13
2017-09-27T07:16:21.632Z,33.85
2017-09-27T07:18:49.868Z,32.03
2017-09-27T07:21:18.100Z,30.40
2017-09-27T07:23:46.309Z,32.20
2017-09-27T07:26:14.729Z,34.13
2017-09-27T07:28:42.931Z,33.58
2017-09-27T07:31:11.130Z,35.78
2017-09-27T07:33:40.117Z,34.38
2017-09-27T07:36:09.131Z,36.75
2017-09-27T07:38:37.398Z,36.22
2017-09-27T07:41:05.628Z,31.00
2017-09-27T07:43:35.107Z,35.63
2017-09-27T07:46:03.346Z,31.95
2017-09-27T07:48:31.622Z,37.03
2017-09-27T07:50:59.842Z,34.60
2017-09-27T07:53:28.043Z,33.88
2017-09-27T07:55:56.255Z,30.75
2017-09-27T07:58:24.470Z,32.47
2017-09-27T08:00:52.686Z,36.55
2017-09-27T08:03:20.935Z,33.75
2017-09-27T08:05:49.208Z,40.53
2017-09-27T08:08:17.715Z,34.00
2017-09-27T08:10:45.952Z,36.75
2017-09-27T08:13:14.143Z,34.90
2017-09-27T08:15:42.360Z,36.70
2017-09-27T08:18:10.603Z,37.70
2017-09-27T08:20:39.654Z,34.80
2017-09-27T08:23:07.898Z,36.85
2017-09-27T08:25:36.152Z,33.30
2017-09-27T08:28:04.466Z,41.25
2017-09-27T08:30:32.659Z,37.20
2017-09-27T08:33:00.916Z,38.38
2017-09-27T08:35:29.122Z,35.10
2017-09-27T08:37:57.382Z,40.00
2017-09-27T08:40:25.640Z,34.53
2017-09-27T08:42:53.871Z,33.97
2017-09-27T08:45:22.848Z,35.53
2017-09-27T08:47:51.052Z,36.15
2017-09-27T08:50:19.254Z,36.22
2017-09-27T08:52:47.472Z,37.17
2017-09-27T08:55:15.687Z,30.50
2017-09-27T08:57:43.876Z,38.03
2017-09-27T09:00:12.067Z,31.98
2017-09-27T09:02:40.262Z,36.45
2017-09-27T09:05:08.460Z,37.72
2017-09-27T09:07:36.691Z,35.55
2017-09-27T09:10:04.943Z,36.42
2017-09-27T09:12:33.154Z,37.83
2017-09-27T09:15:01.388Z,35.50
2017-09-27T09:17:29.582Z,34.00
2017-09-27T09:19:57.796Z,35.55
2017-09-27T09:22:26.775Z,35.33
2017-09-27T09:24:55.756Z,36.38
2017-09-27T09:27:23.956Z,32.47
2017-09-27T09:29:52.189Z,32.25
2017-09-27T09:32:20.392Z,37.55
2017-09-27T09:34:49.363Z,31.87
2017-09-27T09:37:17.632Z,35.17
2017-09-27T09:39:45.844Z,35.08
2017-09-27T09:42:14.805Z,30.75
2017-09-27T09:44:43.052Z,32.88
2017-09-27T09:47:11.596Z,32.58
2017-09-27T09:49:40.565Z,31.02
2017-09-27T09:52:09.613Z,30.48
2017-09-27T09:54:37.819Z,35.40
2017-09-27T09:57:06.032Z,32.05
2017-09-27T09:59:34.294Z,29.83
2017-09-27T10:02:03.286Z,31.33
2017-09-27T10:04:31.553Z,34.35
2017-09-27T10:06:59.711Z,31.65
2017-09-27T10:09:27.931Z,32.35
2017-09-27T10:11:56.123Z,36.20
2017-09-27T10:14:24.327Z,33.15
2017-09-27T10:16:52.611Z,30.65
2017-09-27T10:19:20.822Z,30.17
2017-09-27T10:21:49.046Z,30.23
2017-09-27T10:24:17.326Z,32.97
2017-09-27T10:26:45.524Z,30.50
2017-09-27T10:29:14.503Z,32.25
2017-09-27T10:31:42.710Z,30.50
2017-09-27T10:34:10.926Z,29.80
2017-09-27T10:36:39.169Z,33.17
2017-09-27T10:39:07.410Z,30.00
2017-09-27T10:41:36.559Z,29.42
2017-09-27T10:44:04.796Z,29.50
2017-09-27T10:46:33.062Z,28.40
2017-09-27T10:49:02.152Z,28.45
2017-09-27T10:51:31.294Z,30.80
2017-09-27T10:53:59.569Z,27.60
2017-09-27T10:56:27.801Z,30.30
2017-09-27T10:58:57.143Z,30.73
2017-09-27T11:01:25.423Z,30.60
2017-09-27T11:03:53.689Z,29.98
2017-09-27T11:06:21.965Z,27.85
2017-09-27T11:08:50.164Z,27.15
2017-09-27T11:11:18.376Z,29.67
2017-09-27T11:13:46.567Z,27.80
2017-09-27T11:16:14.811Z,28.17
2017-09-27T11:18:43.810Z,28.27
2017-09-27T11:21:12.083Z,29.02
2017-09-27T11:23:41.040Z,30.67
2017-09-27T11:26:09.242Z,30.05
2017-09-27T11:28:38.220Z,29.00
2017-09-27T11:31:06.439Z,29.63
2017-09-27T11:33:34.626Z,27.45
2017-09-27T11:36:02.935Z,26.83
2017-09-27T11:38:31.222Z,27.85
2017-09-27T11:40:59.828Z,26.40
2017-09-27T11:43:28.798Z,27.25
2017-09-27T11:45:57.019Z,26.73
2017-09-27T11:48:25.227Z,25.05
2017-09-27T11:50:53.472Z,27.37
2017-09-27T11:53:21.688Z,25.92
2017-09-27T11:55:49.920Z,26.80
2017-09-27T11:58:19.223Z,27.00
2017-09-27T12:00:47.483Z,27.73
2017-09-27T12:03:16.139Z,28.05
2017-09-27T12:05:44.351Z,27.33
2017-09-27T12:08:12.704Z,26.75
2017-09-27T12:10:42.063Z,26.40
2017-09-27T12:13:10.288Z,26.30
2017-09-27T12:15:38.479Z,26.35
2017-09-27T12:18:06.673Z,24.87
2017-09-27T12:20:34.893Z,25.10
2017-09-27T12:23:03.162Z,24.52
2017-09-27T12:25:31.571Z,25.85
2017-09-27T12:27:59.845Z,25.33
2017-09-27T12:30:28.139Z,24.87
2017-09-27T12:32:56.346Z,23.60
2017-09-27T12:35:24.631Z,23.62
2017-09-27T12:37:52.885Z,25.00
2017-09-27T12:40:21.192Z,23.70
2017-09-27T12:42:50.506Z,24.15
2017-09-27T12:45:19.491Z,23.75
2017-09-27T12:47:48.451Z,25.35
2017-09-27T12:50:16.652Z,25.77
2017-09-27T12:52:45.636Z,25.37
2017-09-27T12:55:14.432Z,24.58
2017-09-27T12:57:43.405Z,25.40
2017-09-27T13:00:11.612Z,24.05
2017-09-27T13:02:40.587Z,23.67
2017-09-27T13:05:09.558Z,23.10
2017-09-27T13:07:37.770Z,23.67
2017-09-27T13:10:06.720Z,21.98
2017-09-27T13:12:34.929Z,24.33
2017-09-27T13:15:03.904Z,23.48
2017-09-27T13:17:32.094Z,22.50
2017-09-27T13:20:01.051Z,22.87
2017-09-27T13:22:29.342Z,23.40
2017-09-27T13:24:57.539Z,24.55
2017-09-27T13:27:25.776Z,24.25
2017-09-27T13:29:53.956Z,24.63
2017-09-27T13:32:23.154Z,23.17
2017-09-27T13:34:51.371Z,23.00
2017-09-27T13:37:20.374Z,23.02
2017-09-27T13:39:48.647Z,23.90
2017-09-27T13:42:17.343Z,23.48
2017-09-27T13:44:45.560Z,23.92
2017-09-27T13:47:13.793Z,25.25
2017-09-27T13:49:42.026Z,23.12
2017-09-27T13:52:11.002Z,24.27
2017-09-27T13:54:39.199Z,24.12
2017-09-27T13:57:07.411Z,24.63
2017-09-27T13:59:35.648Z,24.60
2017-09-27T14:02:03.878Z,24.73
2017-09-27T14:04:32.102Z,23.55
2017-09-27T14:07:00.292Z,23.48
2017-09-27T14:09:28.615Z,23.62
2017-09-27T14:11:56.871Z,22.25
2017-09-27T14:14:25.112Z,23.23
2017-09-27T14:16:53.343Z,21.87
2017-09-27T14:19:21.613Z,23.35
2017-09-27T14:21:50.228Z,23.70
2017-09-27T14:24:18.991Z,21.33
2017-09-27T14:26:48.152Z,23.38
2017-09-27T14:29:16.665Z,23.25
2017-09-27T14:31:44.858Z,22.90
2017-09-27T14:34:13.095Z,23.17
2017-09-27T14:36:41.292Z,24.30
2017-09-27T14:39:09.588Z,22.65
2017-09-27T14:41:37.862Z,23.67
2017-09-27T14:44:06.185Z,23.92
2017-09-27T14:46:34.506Z,20.65
2017-09-27T14:49:02.752Z,22.48
2017-09-27T14:51:31.000Z,22.35
2017-09-27T14:53:59.219Z,23.83
2017-09-27T14:56:28.276Z,24.67
2017-09-27T14:58:56.662Z,22.75
2017-09-27T15:01:25.710Z,21.92
2017-09-27T15:03:54.015Z,23.38
2017-09-27T15:06:22.468Z,23.45
2017-09-27T15:08:51.459Z,23.25
2017-09-27T15:11:19.654Z,22.62
2017-09-27T15:13:47.917Z,21.52
2017-09-27T15:16:16.301Z,20.98
2017-09-27T15:18:44.679Z,22.50
2017-09-27T15:21:12.931Z,24.25
2017-09-27T15:23:41.168Z,22.70
2017-09-27T15:26:09.827Z,23.77
2017-09-27T15:28:38.161Z,25.90
2017-09-27T15:31:06.458Z,24.30
2017-09-27T15:33:34.661Z,27.27
2017-09-27T15:36:03.752Z,23.55
2017-09-27T15:38:32.888Z,25.27
2017-09-27T15:41:04.765Z,22.60
2017-09-27T15:43:33.037Z,23.70
2017-09-27T15:46:02.006Z,23.35
2017-09-27T15:48:30.356Z,22.70
2017-09-27T15:50:58.580Z,23.17
2017-09-27T15:53:28.152Z,24.15
2017-09-27T15:55:56.368Z,23.00
2017-09-27T15:58:24.801Z,23.90
2017-09-27T16:00:52.999Z,23.98
2017-09-27T16:03:21.971Z,22.42
2017-09-27T16:05:50.239Z,24.52
2017-09-27T16:08:18.461Z,23.08
2017-09-27T16:10:49.890Z,23.80
2017-09-27T16:13:19.072Z,26.15
2017-09-27T16:15:47.337Z,26.42
2017-09-27T16:18:15.585Z,26.37
2017-09-27T16:20:43.802Z,23.98
2017-09-27T16:23:12.194Z,24.63
2017-09-27T16:25:41.177Z,26.05
2017-09-27T16:28:10.207Z,26.60
2017-09-27T16:30:38.463Z,24.48
2017-09-27T16:33:06.724Z,28.10
2017-09-27T16:35:35.715Z,29.15
2017-09-27T16:38:04.826Z,27.48
2017-09-27T16:40:33.224Z,27.73
2017-09-27T16:43:01.415Z,28.23
2017-09-27T16:45:29.616Z,28.30
2017-09-27T16:47:57.835Z,28.77
2017-09-27T16:50:26.212Z,28.55
2017-09-27T16:52:54.441Z,30.55
2017-09-27T16:55:22.736Z,27.85
2017-09-27T16:57:51.742Z,29.73
2017-09-27T17:00:20.763Z,30.83
2017-09-27T17:02:49.085Z,28.73
2017-09-27T17:05:17.363Z,30.45
2017-09-27T17:07:45.584Z,27.15
2017-09-27T17:10:13.812Z,27.35
2017-09-27T17:12:42.036Z,31.55
2017-09-27T17:15:10.239Z,33.03
2017-09-27T17:17:38.822Z,29.20
2017-09-27T17:20:07.044Z,29.17
2017-09-27T17:22:35.263Z,30.50
2017-09-27T17:25:03.493Z,30.98
2017-09-27T17:27:32.626Z,29.77
2017-09-27T17:30:00.873Z,28.00
2017-09-27T17:32:29.174Z,28.85
2017-09-27T17:34:57.412Z,30.77
2017-09-27T17:37:25.655Z,31.60
2017-09-27T17:39:53.892Z,29.60
2017-09-27T17:42:22.101Z,30.00
2017-09-27T17:44:50.673Z,30.25
2017-09-27T17:47:19.052Z,29.75
2017-09-27T17:49:47.298Z,31.62
2017-09-27T17:52:15.538Z,29.95
2017-09-27T17:54:44.548Z,29.55
2017-09-27T17:57:12.795Z,31.20
2017-09-27T17:59:41.764Z,31.45
2017-09-27T18:02:10.009Z,30.90
2017-09-27T18:04:43.672Z,30.30
2017-09-27T18:07:21.339Z,29.83
2017-09-27T18:09:55.147Z,33.00
2017-09-27T18:12:28.815Z,30.42
2017-09-27T18:15:01.652Z,32.58
2017-09-27T18:17:31.551Z,31.83
2017-09-27T18:19:59.775Z,31.33
2017-09-27T18:22:28.880Z,30.15
2017-09-27T18:24:57.100Z,29.92
2017-09-27T18:27:26.188Z,29.30
2017-09-27T18:29:54.427Z,29.90
2017-09-27T18:32:22.731Z,29.80
2017-09-27T18:34:51.774Z,30.77
2017-09-27T18:37:19.980Z,31.62
2017-09-27T18:39:48.236Z,31.65
2017-09-27T18:42:16.535Z,33.28
2017-09-27T18:44:44.731Z,32.17
2017-09-27T18:47:12.962Z,30.45
2017-09-27T18:49:41.203Z,31.42
2017-09-27T18:52:09.449Z,30.12
2017-09-27T18:54:37.667Z,36.75
2017-09-27T18:57:05.931Z,30.73
2017-09-27T18:59:34.179Z,32.47
2017-09-27T19:02:02.452Z,31.92
2017-09-27T19:04:31.444Z,31.27
2017-09-27T19:06:59.696Z,32.65
2017-09-27T19:09:28.969Z,33.63
2017-09-27T19:11:57.301Z,34.20
2017-09-27T19:14:26.349Z,29.77
2017-09-27T19:16:54.612Z,32.10
2017-09-27T19:19:23.186Z,32.58
2017-09-27T19:21:51.435Z,32.80
2017-09-27T19:24:20.419Z,32.35
2017-09-27T19:26:49.470Z,32.58
2017-09-27T19:29:17.796Z,30.60
2017-09-27T19:31:46.817Z,32.92
2017-09-27T19:34:15.459Z,33.33
2017-09-27T19:36:43.740Z,33.83
2017-09-27T19:39:12.732Z,32.40
2017-09-27T19:41:41.738Z,32.60
2017-09-27T19:44:10.005Z,34.33
2017-09-27T19:46:39.411Z,33.83
2017-09-27T19:49:07.842Z,31.67
2017-09-27T19:51:38.286Z,33.90
2017-09-27T19:54:06.531Z,32.15
2017-09-27T19:56:34.939Z,31.95
2017-09-27T19:59:03.202Z,35.25
2017-09-27T20:01:31.477Z,32.92
2017-09-27T20:04:01.000Z,33.78
2017-09-27T20:06:29.361Z,33.30
2017-09-27T20:08:57.785Z,32.70
2017-09-27T20:11:28.597Z,33.22
2017-09-27T20:13:56.920Z,31.80
2017-09-27T20:16:25.150Z,32.95
2017-09-27T20:18:53.524Z,34.83
2017-09-27T20:21:21.774Z,34.53
2017-09-27T20:23:50.052Z,31.37
2017-09-27T20:26:18.279Z,35.00
2017-09-27T20:28:46.504Z,34.15
2017-09-27T20:31:14.846Z,34.10
2017-09-27T20:33:43.093Z,33.08
2017-09-27T20:36:11.470Z,32.70
2017-09-27T20:38:40.052Z,32.47
2017-09-27T20:41:09.080Z,34.20
2017-09-27T20:43:37.671Z,35.03
2017-09-27T20:46:05.893Z,33.65
2017-09-27T20:48:34.905Z,29.83
2017-09-27T20:51:03.139Z,31.67
2017-09-27T20:53:31.346Z,32.15
2017-09-27T20:56:00.314Z,30.83
2017-09-27T20:58:28.534Z,31.05
2017-09-27T21:00:57.243Z,32.45
2017-09-27T21:06:00.297Z,30.58
2017-09-27T21:08:29.402Z,29.12
2017-09-27T21:10:57.655Z,30.98
2017-09-27T21:13:25.879Z,29.37
2017-09-27T21:15:54.106Z,30.27
2017-09-27T21:18:23.084Z,29.73
2017-09-27T21:20:51.319Z,28.58
2017-09-27T21:23:19.576Z,31.12
2017-09-27T21:25:47.859Z,28.67
2017-09-27T21:28:16.193Z,30.08
2017-09-27T21:30:44.406Z,27.85
2017-09-27T21:33:12.631Z,29.12
2017-09-27T21:35:40.848Z,29.37
2017-09-27T21:38:09.118Z,26.80
2017-09-27T21:40:37.398Z,28.15
2017-09-27T21:43:05.657Z,28.50
2017-09-27T21:45:34.777Z,27.77
2017-09-27T21:48:03.482Z,25.58
2017-09-27T21:50:32.749Z,28.40
2017-09-27T21:53:01.039Z,27.90
2017-09-27T21:55:29.492Z,27.60
2017-09-27T21:57:59.604Z,28.05
2017-09-27T22:00:29.111Z,28.30
2017-09-27T22:02:57.470Z,27.48
2017-09-27T22:05:25.838Z,27.62
2017-09-27T22:07:54.271Z,27.42
2017-09-27T22:10:22.573Z,27.77
2017-09-27T22:12:51.263Z,27.45
2017-09-27T22:15:19.606Z,28.15
2017-09-27T22:17:47.917Z,26.37
2017-09-27T22:20:16.197Z,26.77
2017-09-27T22:22:44.521Z,27.05
2017-09-27T22:25:12.821Z,26.73
2017-09-27T22:27:46.678Z,26.77
2017-09-27T22:30:15.244Z,25.23
2017-09-27T22:32:43.556Z,26.75
2017-09-27T22:35:11.829Z,25.92
2017-09-27T22:37:40.117Z,24.42
2017-09-27T22:40:08.447Z,25.52
2017-09-27T22:42:36.744Z,24.63
2017-09-27T22:45:05.075Z,24.98
2017-09-27T22:47:34.995Z,23.83
2017-09-27T22:50:04.236Z,25.02
2017-09-27T22:52:32.843Z,24.70
2017-09-27T22:55:02.009Z,23.62
2017-09-27T22:57:30.682Z,24.37
2017-09-27T22:59:59.731Z,23.52
2017-09-27T23:02:28.093Z,25.10
2017-09-27T23:08:06.933Z,23.17
2017-09-27T23:10:36.646Z,21.73
2017-09-27T23:26:43.360Z,22.55
2017-09-27T23:29:12.021Z,23.77
2017-09-27T23:31:41.158Z,23.33
2017-09-27T23:34:09.501Z,23.30
2017-09-27T23:36:40.613Z,22.80
2017-09-27T23:39:08.954Z,22.10
2017-09-27T23:41:37.300Z,22.15
2017-09-27T23:44:06.352Z,22.20
2017-09-27T23:46:36.006Z,20.83
2017-09-27T23:49:04.307Z,22.67
2017-09-27T23:51:32.648Z,22.60
2017-09-27T23:54:01.713Z,22.85
2017-09-27T23:59:20.523Z,22.42
